createdAt,value
2019-05-22T00:01:17.923Z,38.17
2019-05-22T00:03:58.375Z,41.23
2019-05-22T00:06:31.509Z,39.47
2019-05-22T00:09:02.100Z,40.63
2019-05-22T00:11:33.362Z,41.80
2019-05-22T00:14:02.755Z,39.13
2019-05-22T00:16:33.349Z,41.47
2019-05-22T00:19:03.296Z,40.07
2019-05-22T00:21:33.898Z,41.33
2019-05-22T00:24:05.447Z,44.00
2019-05-22T00:26:36.443Z,41.27
2019-05-22T00:29:05.396Z,37.50
2019-05-22T00:31:34.711Z,40.00
2019-05-22T00:34:04.526Z,45.33
2019-05-22T00:36:33.757Z,45.87
2019-05-22T00:39:03.456Z,47.97
2019-05-22T00:41:34.279Z,48.30
2019-05-22T00:44:05.088Z,47.00
2019-05-22T00:46:35.923Z,46.70
2019-05-22T00:49:04.934Z,46.50
2019-05-22T00:51:36.429Z,49.07
2019-05-22T00:54:25.139Z,48.03
2019-05-22T00:56:56.056Z,47.03
2019-05-22T00:59:42.720Z,48.17
2019-05-22T01:02:14.277Z,49.60
2019-05-22T01:04:43.391Z,52.27
2019-05-22T01:07:18.784Z,49.90
2019-05-22T01:09:48.299Z,51.13
2019-05-22T01:12:20.903Z,49.17
2019-05-22T01:14:50.415Z,52.17
2019-05-22T01:17:20.399Z,50.23
2019-05-22T01:19:51.729Z,50.57
2019-05-22T01:22:22.683Z,49.20
2019-05-22T01:24:53.577Z,46.90
2019-05-22T01:27:25.799Z,46.93
2019-05-22T01:29:56.904Z,44.87
2019-05-22T01:35:17.934Z,52.07
2019-05-22T01:37:46.992Z,42.77
2019-05-22T01:40:20.275Z,51.43
2019-05-22T01:42:51.462Z,45.23
2019-05-22T01:45:22.308Z,45.57
2019-05-22T01:47:57.339Z,47.17
2019-05-22T01:50:42.212Z,37.27
2019-05-22T01:53:15.761Z,43.83
2019-05-22T01:55:45.588Z,45.23
2019-05-22T01:58:15.566Z,42.17
2019-05-22T02:00:46.179Z,47.13
2019-05-22T02:03:23.045Z,47.40
2019-05-22T02:05:52.064Z,45.70
2019-05-22T02:08:23.136Z,47.93
2019-05-22T02:10:55.497Z,53.67
2019-05-22T02:13:33.630Z,47.50
2019-05-22T02:16:02.587Z,47.57
2019-05-22T02:18:33.958Z,51.30
2019-05-22T02:21:04.331Z,47.63
2019-05-22T02:23:33.988Z,51.77
2019-05-22T02:26:04.641Z,49.63
2019-05-22T02:28:33.729Z,46.87
2019-05-22T02:31:04.362Z,50.73
2019-05-22T02:33:36.012Z,46.97
2019-05-22T02:36:05.809Z,45.07
2019-05-22T02:38:35.088Z,48.73
2019-05-22T02:41:05.732Z,47.53
2019-05-22T02:43:36.217Z,46.63
2019-05-22T02:46:06.873Z,56.40
2019-05-22T02:48:37.064Z,50.27
2019-05-22T02:51:06.107Z,47.27
2019-05-22T02:53:35.691Z,45.90
2019-05-22T02:56:05.391Z,45.23
2019-05-22T02:58:34.331Z,47.67
2019-05-22T03:01:05.117Z,43.97
2019-05-22T03:03:35.169Z,51.80
2019-05-22T03:06:06.533Z,50.70
2019-05-22T03:08:43.752Z,47.47
2019-05-22T03:11:12.716Z,50.40
2019-05-22T03:13:59.556Z,52.63
2019-05-22T03:16:30.093Z,54.37
2019-05-22T03:19:08.791Z,49.17
2019-05-22T03:21:33.239Z,49.93
2019-05-22T03:24:02.861Z,54.20
2019-05-22T03:26:39.522Z,48.47
2019-05-22T03:29:08.760Z,58.47
2019-05-22T03:31:37.702Z,44.23
2019-05-22T03:34:07.939Z,47.87
2019-05-22T03:36:36.923Z,47.00
2019-05-22T03:39:07.695Z,47.00
2019-05-22T03:41:37.501Z,49.77
2019-05-22T03:44:06.710Z,48.03
2019-05-22T03:46:38.050Z,48.90
2019-05-22T03:49:08.241Z,59.77
2019-05-22T03:51:38.519Z,52.93
2019-05-22T03:54:09.129Z,56.20
2019-05-22T03:56:39.459Z,50.03
2019-05-22T03:59:08.749Z,52.33
2019-05-22T04:01:39.897Z,37.93
2019-05-22T04:04:09.691Z,38.13
2019-05-22T04:06:39.990Z,37.60
2019-05-22T04:09:17.520Z,34.33
2019-05-22T04:11:46.531Z,31.13
2019-05-22T04:14:16.169Z,33.50
2019-05-22T04:16:45.293Z,28.70
2019-05-22T04:19:15.453Z,27.83
2019-05-22T04:21:44.770Z,25.13
2019-05-22T04:24:14.271Z,28.27
2019-05-22T04:26:43.219Z,23.00
2019-05-22T04:29:12.161Z,18.43
2019-05-22T04:31:45.881Z,21.67
2019-05-22T04:34:14.997Z,19.47
2019-05-22T04:36:43.938Z,21.23
2019-05-22T04:39:14.698Z,19.43
2019-05-22T04:41:43.721Z,23.73
2019-05-22T04:44:13.141Z,21.87
2019-05-22T04:46:42.860Z,19.63
2019-05-22T04:49:11.803Z,26.27
2019-05-22T04:51:40.769Z,24.33
2019-05-22T04:54:09.789Z,28.60
2019-05-22T04:56:38.792Z,29.03
2019-05-22T04:59:07.760Z,30.53
2019-05-22T05:01:37.158Z,31.00
2019-05-22T05:04:06.895Z,30.73
2019-05-22T05:06:36.028Z,27.37
2019-05-22T05:09:08.970Z,28.87
2019-05-22T05:11:38.576Z,34.07
2019-05-22T05:14:07.621Z,31.30
2019-05-22T05:16:37.023Z,32.13
2019-05-22T05:19:06.006Z,29.67
2019-05-22T05:21:35.125Z,31.10
2019-05-22T05:24:04.553Z,34.33
2019-05-22T05:26:34.357Z,36.30
2019-05-22T05:29:03.983Z,33.77
2019-05-22T05:31:35.227Z,38.37
2019-05-22T05:34:08.576Z,33.17
2019-05-22T05:36:38.134Z,35.40
2019-05-22T05:39:10.504Z,39.50
2019-05-22T05:42:04.377Z,32.70
2019-05-22T05:44:33.907Z,39.93
2019-05-22T05:47:03.680Z,36.00
2019-05-22T05:49:32.637Z,33.20
2019-05-22T05:52:01.754Z,39.93
2019-05-22T05:54:31.884Z,31.13
2019-05-22T05:57:19.024Z,26.03
2019-05-22T05:59:48.313Z,29.10
2019-05-22T06:02:18.804Z,30.47
2019-05-22T06:04:49.304Z,33.53
2019-05-22T06:07:19.037Z,31.00
2019-05-22T06:09:49.745Z,26.67
2019-05-22T06:12:19.539Z,29.10
2019-05-22T06:14:49.057Z,28.53
2019-05-22T06:17:23.406Z,33.63
2019-05-22T06:19:57.015Z,29.27
2019-05-22T06:22:26.053Z,32.27
2019-05-22T06:24:59.772Z,31.60
2019-05-22T06:27:31.132Z,29.60
2019-05-22T06:30:05.971Z,33.43
2019-05-22T06:32:37.333Z,28.53
2019-05-22T06:35:09.514Z,30.60
2019-05-22T06:38:01.231Z,25.43
2019-05-22T06:40:30.580Z,21.93
2019-05-22T06:43:04.713Z,21.83
2019-05-22T06:45:35.587Z,24.73
2019-05-22T06:48:04.885Z,24.73
2019-05-22T06:50:33.853Z,25.60
2019-05-22T06:53:09.872Z,22.63
2019-05-22T06:55:33.442Z,24.83
2019-05-22T06:58:03.339Z,21.53
2019-05-22T07:00:32.731Z,20.67
2019-05-22T07:03:02.220Z,21.97
2019-05-22T07:05:31.486Z,17.20
2019-05-22T07:08:00.783Z,16.80
2019-05-22T07:10:30.293Z,20.07
2019-05-22T07:13:00.629Z,21.27
2019-05-22T07:15:31.615Z,21.30
2019-05-22T07:18:01.235Z,19.07
2019-05-22T07:20:30.825Z,19.23
2019-05-22T07:23:01.423Z,18.27
2019-05-22T07:25:34.121Z,19.13
2019-05-22T07:28:04.119Z,20.33
2019-05-22T07:30:33.072Z,16.50
2019-05-22T07:33:05.929Z,18.90
2019-05-22T07:35:55.959Z,16.77
2019-05-22T07:38:06.292Z,20.97
2019-05-22T07:40:36.469Z,20.77
2019-05-22T07:43:05.436Z,16.80
2019-05-22T07:45:34.954Z,19.90
2019-05-22T07:48:04.337Z,18.07
2019-05-22T07:50:34.211Z,23.53
2019-05-22T07:53:03.189Z,19.90
2019-05-22T07:55:33.077Z,18.77
2019-05-22T07:58:04.574Z,19.00
2019-05-22T08:00:34.245Z,17.80
2019-05-22T08:03:03.559Z,15.33
2019-05-22T08:05:33.759Z,23.70
2019-05-22T08:08:02.834Z,21.60
2019-05-22T08:10:31.781Z,20.77
2019-05-22T08:13:00.874Z,17.93
2019-05-22T08:15:30.558Z,20.70
2019-05-22T08:18:00.381Z,19.60
2019-05-22T08:20:29.801Z,18.10
2019-05-22T08:22:59.699Z,17.60
2019-05-22T08:25:28.719Z,19.47
2019-05-22T08:27:58.050Z,16.83
2019-05-22T08:30:27.095Z,18.27
2019-05-22T08:32:58.220Z,19.77
2019-05-22T08:35:27.487Z,17.00
2019-05-22T08:37:56.489Z,13.30
2019-05-22T08:40:26.026Z,30.73
2019-05-22T08:42:55.742Z,14.67
2019-05-22T08:45:24.853Z,18.40
2019-05-22T08:47:53.814Z,15.03
2019-05-22T08:50:24.321Z,15.33
2019-05-22T08:52:53.705Z,12.47
2019-05-22T08:55:22.652Z,13.47
2019-05-22T08:57:52.143Z,14.93
2019-05-22T09:00:22.532Z,11.80
2019-05-22T09:02:51.535Z,12.80
2019-05-22T09:05:21.760Z,15.20
2019-05-22T09:07:51.109Z,14.00
2019-05-22T09:10:25.731Z,15.67
2019-05-22T09:12:52.909Z,16.07
2019-05-22T09:15:21.955Z,14.80
2019-05-22T09:17:50.970Z,15.23
2019-05-22T09:20:21.432Z,15.27
2019-05-22T09:22:51.045Z,17.20
2019-05-22T09:25:19.991Z,14.27
2019-05-22T09:27:49.212Z,16.60
2019-05-22T09:30:18.746Z,15.50
2019-05-22T09:32:48.741Z,16.20
2019-05-22T09:35:19.085Z,14.10
2019-05-22T09:37:48.356Z,15.13
2019-05-22T09:40:17.479Z,16.03
2019-05-22T09:42:46.827Z,14.03
2019-05-22T09:45:16.436Z,13.87
2019-05-22T09:47:46.617Z,14.13
2019-05-22T09:50:16.741Z,11.20
2019-05-22T09:52:57.126Z,17.63
2019-05-22T09:55:18.805Z,18.23
2019-05-22T09:57:47.831Z,13.50
2019-05-22T10:00:17.156Z,15.13
2019-05-22T10:02:46.536Z,12.87
2019-05-22T10:05:16.253Z,13.50
2019-05-22T10:07:59.882Z,11.80
2019-05-22T10:10:18.435Z,15.50
2019-05-22T10:12:47.754Z,13.17
2019-05-22T10:15:17.232Z,15.83
2019-05-22T10:17:47.770Z,12.53
2019-05-22T10:20:17.264Z,12.90
2019-05-22T10:22:46.209Z,12.53
2019-05-22T10:25:16.980Z,12.33
2019-05-22T10:27:47.621Z,14.00
2019-05-22T10:30:18.299Z,13.73
2019-05-22T10:32:47.698Z,12.10
2019-05-22T10:35:17.018Z,11.53
2019-05-22T10:37:45.961Z,12.87
2019-05-22T10:40:15.080Z,11.63
2019-05-22T10:42:45.157Z,14.27
2019-05-22T10:45:14.536Z,12.73
2019-05-22T10:47:43.929Z,11.00
2019-05-22T10:50:13.345Z,11.10
2019-05-22T10:52:42.411Z,13.20
2019-05-22T10:55:12.880Z,13.03
2019-05-22T10:57:43.572Z,15.33
2019-05-22T11:00:15.814Z,11.07
2019-05-22T11:02:44.841Z,13.50
2019-05-22T11:05:13.782Z,13.40
2019-05-22T11:07:43.309Z,15.33
2019-05-22T11:10:13.938Z,11.90
2019-05-22T11:12:42.913Z,15.13
2019-05-22T11:15:11.988Z,9.93
2019-05-22T11:17:44.795Z,11.40
2019-05-22T11:20:13.966Z,10.80
2019-05-22T11:22:43.379Z,11.20
2019-05-22T11:25:12.889Z,13.60
2019-05-22T11:27:41.866Z,12.73
2019-05-22T11:30:11.383Z,12.30
2019-05-22T11:32:40.521Z,13.73
2019-05-22T11:35:10.063Z,13.77
2019-05-22T11:37:39.335Z,12.80
2019-05-22T11:40:08.817Z,10.60
2019-05-22T11:42:37.916Z,13.30
2019-05-22T11:45:08.038Z,9.50
2019-05-22T11:47:37.351Z,13.13
2019-05-22T11:50:06.568Z,13.47
2019-05-22T11:52:36.259Z,11.20
2019-05-22T11:55:06.535Z,12.60
2019-05-22T11:57:36.543Z,11.60
2019-05-22T12:00:09.389Z,10.13
2019-05-22T12:02:39.251Z,10.17
2019-05-22T12:05:10.012Z,8.93
2019-05-22T12:07:40.606Z,10.23
2019-05-22T12:10:10.897Z,10.07
2019-05-22T12:12:40.271Z,11.40
2019-05-22T12:15:10.257Z,8.10
2019-05-22T12:17:40.374Z,9.03
2019-05-22T12:20:10.785Z,8.87
2019-05-22T12:22:39.858Z,8.07
2019-05-22T12:25:11.296Z,8.35
2019-05-22T12:27:40.258Z,8.28
2019-05-22T12:30:09.976Z,8.50
2019-05-22T12:32:39.284Z,9.55
2019-05-22T12:35:08.788Z,10.08
2019-05-22T12:37:37.745Z,8.38
2019-05-22T12:40:11.747Z,11.57
2019-05-22T12:42:40.713Z,11.38
2019-05-22T12:45:12.298Z,7.90
2019-05-22T12:47:43.002Z,8.88
2019-05-22T12:50:13.351Z,8.93
2019-05-22T12:52:43.833Z,7.62
2019-05-22T12:55:12.844Z,7.12
2019-05-22T12:57:41.869Z,9.23
2019-05-22T13:00:10.960Z,9.00
2019-05-22T13:02:42.891Z,7.62
2019-05-22T13:05:14.290Z,9.80
2019-05-22T13:07:41.871Z,8.13
2019-05-22T13:10:11.456Z,9.65
2019-05-22T13:12:40.408Z,8.70
2019-05-22T13:15:10.775Z,6.40
2019-05-22T13:17:40.696Z,9.10
2019-05-22T13:20:11.948Z,7.28
2019-05-22T13:22:44.993Z,6.45
2019-05-22T13:25:15.385Z,7.35
2019-05-22T13:27:44.604Z,7.22
2019-05-22T13:30:15.286Z,5.78
2019-05-22T13:32:44.359Z,5.97
2019-05-22T13:35:15.116Z,5.15
2019-05-22T13:37:44.316Z,7.35
2019-05-22T13:40:27.004Z,5.72
2019-05-22T13:42:45.167Z,5.80
2019-05-22T13:45:28.459Z,6.55
2019-05-22T13:47:46.097Z,5.97
2019-05-22T13:50:15.171Z,6.53
2019-05-22T13:52:44.191Z,5.47
2019-05-22T13:55:13.580Z,6.28
2019-05-22T13:57:42.602Z,8.53
2019-05-22T14:00:13.284Z,5.80
2019-05-22T14:02:42.457Z,5.45
2019-05-22T14:05:13.820Z,5.67
2019-05-22T14:07:42.664Z,6.08
2019-05-22T14:10:11.673Z,6.17
2019-05-22T14:12:41.335Z,5.53
2019-05-22T14:15:11.092Z,7.33
2019-05-22T14:17:40.376Z,7.20
2019-05-22T14:20:12.966Z,6.40
2019-05-22T14:22:42.024Z,5.03
2019-05-22T14:25:11.378Z,5.95
2019-05-22T14:27:41.874Z,5.03
2019-05-22T14:33:40.673Z,9.80
2019-05-22T14:36:35.932Z,5.70
2019-05-22T14:41:55.068Z,5.30
2019-05-22T14:44:24.133Z,6.30
2019-05-22T14:46:53.140Z,9.03
2019-05-22T14:49:22.084Z,7.10
2019-05-22T14:51:51.466Z,7.58
2019-05-22T14:54:20.577Z,7.12
2019-05-22T14:56:49.513Z,4.87
2019-05-22T14:59:18.551Z,5.95
2019-05-22T15:01:47.637Z,5.55
2019-05-22T15:04:16.657Z,4.65
2019-05-22T15:06:45.705Z,4.08
2019-05-22T15:09:14.695Z,6.53
2019-05-22T15:11:43.699Z,6.92
2019-05-22T15:14:12.663Z,7.20
2019-05-22T15:16:41.857Z,6.03
2019-05-22T15:19:11.383Z,7.08
2019-05-22T15:21:40.383Z,6.75
2019-05-22T15:24:09.349Z,6.42
2019-05-22T15:26:38.289Z,6.15
2019-05-22T15:29:07.514Z,5.22
2019-05-22T15:31:36.452Z,4.85
2019-05-22T15:34:06.539Z,5.25
2019-05-22T15:36:35.545Z,4.03
2019-05-22T15:39:06.256Z,4.10
2019-05-22T15:41:35.462Z,5.53
2019-05-22T15:44:05.499Z,4.75
2019-05-22T15:46:34.791Z,4.20
2019-05-22T15:49:05.481Z,5.28
2019-05-22T15:51:35.570Z,5.72
2019-05-22T15:54:05.159Z,5.62
2019-05-22T15:56:35.994Z,5.05
2019-05-22T15:59:07.167Z,5.33
2019-05-22T16:01:36.773Z,7.20
2019-05-22T16:04:07.567Z,6.78
2019-05-22T16:06:37.587Z,6.50
2019-05-22T16:09:10.820Z,4.35
2019-05-22T16:11:41.103Z,5.30
2019-05-22T16:14:10.741Z,6.70
2019-05-22T16:16:39.761Z,5.78
2019-05-22T16:19:10.587Z,5.75
2019-05-22T16:21:43.121Z,5.42
2019-05-22T16:24:12.156Z,4.72
2019-05-22T16:26:41.350Z,3.08
2019-05-22T16:29:11.780Z,3.50
2019-05-22T16:31:42.721Z,3.95
2019-05-22T16:37:14.090Z,5.97
2019-05-22T16:40:05.320Z,4.17
2019-05-22T16:42:44.254Z,5.12
2019-05-22T16:45:13.829Z,5.70
2019-05-22T16:47:45.887Z,5.75
2019-05-22T16:50:15.633Z,5.08
2019-05-22T16:52:45.679Z,5.85
2019-05-22T16:55:14.630Z,6.40
2019-05-22T16:57:43.645Z,6.05
2019-05-22T17:00:13.860Z,6.30
2019-05-22T17:02:43.335Z,4.95
2019-05-22T17:05:13.185Z,6.92
2019-05-22T17:07:42.993Z,4.70
2019-05-22T17:10:13.390Z,4.60
2019-05-22T17:12:46.274Z,4.70
2019-05-22T17:17:54.767Z,5.78
2019-05-22T17:20:28.433Z,4.30
2019-05-22T17:22:57.838Z,5.22
2019-05-22T17:25:27.909Z,7.37
2019-05-22T17:27:57.211Z,5.35
2019-05-22T17:30:26.601Z,6.72
2019-05-22T17:32:56.623Z,5.15
2019-05-22T17:35:26.777Z,5.40
2019-05-22T17:37:55.832Z,6.22
2019-05-22T17:40:25.201Z,5.20
2019-05-22T17:42:54.927Z,3.65
2019-05-22T17:45:26.855Z,4.65
2019-05-22T17:47:56.108Z,4.78
2019-05-22T17:50:27.617Z,4.40
2019-05-22T17:52:58.424Z,5.53
2019-05-22T17:55:28.639Z,4.37
2019-05-22T17:57:58.423Z,5.97
2019-05-22T18:00:29.009Z,5.65
2019-05-22T18:02:59.111Z,3.70
2019-05-22T18:05:29.192Z,5.75
2019-05-22T18:07:58.146Z,6.30
2019-05-22T18:10:27.182Z,6.30
2019-05-22T18:12:56.246Z,6.35
2019-05-22T18:15:25.619Z,6.70
2019-05-22T18:17:55.307Z,3.65
2019-05-22T18:20:24.895Z,4.03
2019-05-22T18:22:53.847Z,5.83
2019-05-22T18:25:22.949Z,4.50
2019-05-22T18:27:52.181Z,4.50
2019-05-22T18:30:22.684Z,4.70
2019-05-22T18:32:51.663Z,5.42
2019-05-22T18:35:20.913Z,3.22
2019-05-22T18:37:49.883Z,3.72
2019-05-22T18:40:18.940Z,5.05
2019-05-22T18:42:47.868Z,3.35
2019-05-22T18:45:18.701Z,5.12
2019-05-22T18:47:50.687Z,6.45
2019-05-22T18:50:19.628Z,7.87
2019-05-22T18:52:50.067Z,5.93
2019-05-22T18:55:19.459Z,4.80
2019-05-22T18:57:48.416Z,4.03
2019-05-22T19:00:19.469Z,8.07
2019-05-22T19:02:48.456Z,5.37
2019-05-22T19:05:18.969Z,7.17
2019-05-22T19:07:48.388Z,4.47
2019-05-22T19:10:18.181Z,6.17
2019-05-22T19:12:47.220Z,6.37
2019-05-22T19:15:16.724Z,6.87
2019-05-22T19:17:45.768Z,6.70
2019-05-22T19:20:15.274Z,7.47
2019-05-22T19:22:58.436Z,7.73
2019-05-22T19:25:14.889Z,4.90
2019-05-22T19:27:43.900Z,6.63
2019-05-22T19:30:12.914Z,4.83
2019-05-22T19:32:41.971Z,5.93
2019-05-22T19:35:11.208Z,5.17
2019-05-22T19:37:40.466Z,5.37
2019-05-22T19:40:10.921Z,7.00
2019-05-22T19:42:39.961Z,5.60
2019-05-22T19:45:09.467Z,6.60
2019-05-22T19:47:40.389Z,9.53
2019-05-22T19:50:22.295Z,6.53
2019-05-22T19:52:42.114Z,7.63
2019-05-22T19:55:12.452Z,5.97
2019-05-22T19:57:42.556Z,9.47
2019-05-22T20:00:13.304Z,7.67
2019-05-22T20:02:42.346Z,8.43
2019-05-22T20:05:11.651Z,9.90
2019-05-22T20:07:40.971Z,9.30
2019-05-22T20:10:10.846Z,9.43
2019-05-22T20:12:40.156Z,6.90
2019-05-22T20:15:09.636Z,8.50
2019-05-22T20:17:38.670Z,11.30
2019-05-22T20:20:08.354Z,9.50
2019-05-22T20:22:38.111Z,10.20
2019-05-22T20:25:07.483Z,9.47
2019-05-22T20:27:36.671Z,6.83
2019-05-22T20:30:06.255Z,8.77
2019-05-22T20:32:35.927Z,11.40
2019-05-22T20:35:05.721Z,10.50
2019-05-22T20:37:34.667Z,8.43
2019-05-22T20:40:05.235Z,6.73
2019-05-22T20:42:37.223Z,7.27
2019-05-22T20:45:06.935Z,12.43
2019-05-22T20:47:37.438Z,10.20
2019-05-22T20:50:08.217Z,9.90
2019-05-22T20:52:38.007Z,10.03
2019-05-22T20:55:07.417Z,8.70
2019-05-22T20:57:36.457Z,12.20
2019-05-22T21:00:06.636Z,8.80
2019-05-22T21:02:38.437Z,9.17
2019-05-22T21:05:09.305Z,10.30
2019-05-22T21:07:40.678Z,9.20
2019-05-22T21:10:10.057Z,12.67
2019-05-22T21:12:40.824Z,10.40
2019-05-22T21:15:09.892Z,9.40
2019-05-22T21:17:39.419Z,12.77
2019-05-22T21:20:10.188Z,11.43
2019-05-22T21:22:40.579Z,9.50
2019-05-22T21:25:11.860Z,11.17
2019-05-22T21:27:42.582Z,10.57
2019-05-22T21:30:12.635Z,10.83
2019-05-22T21:32:41.645Z,9.60
2019-05-22T21:35:11.147Z,9.07
2019-05-22T21:37:41.007Z,12.60
2019-05-22T21:40:10.488Z,13.77
2019-05-22T21:42:41.474Z,14.83
2019-05-22T21:45:10.982Z,11.23
2019-05-22T21:47:41.421Z,10.50
2019-05-22T21:50:10.909Z,11.27
2019-05-22T21:52:39.979Z,14.07
2019-05-22T21:55:11.043Z,11.60
2019-05-22T21:57:40.267Z,9.57
2019-05-22T22:00:12.377Z,11.43
2019-05-22T22:02:45.075Z,11.10
2019-05-22T22:05:14.751Z,10.53
2019-05-22T22:07:44.116Z,12.00
2019-05-22T22:10:13.260Z,11.87
2019-05-22T22:12:42.771Z,12.60
2019-05-22T22:15:12.267Z,12.80
2019-05-22T22:17:42.168Z,13.50
2019-05-22T22:20:12.764Z,14.80
2019-05-22T22:22:41.909Z,11.60
2019-05-22T22:25:11.002Z,11.67
2019-05-22T22:27:39.935Z,15.03
2019-05-22T22:30:12.123Z,12.83
2019-05-22T22:32:42.835Z,12.73
2019-05-22T22:35:12.233Z,11.27
2019-05-22T22:37:41.168Z,14.20
2019-05-22T22:40:11.895Z,15.73
2019-05-22T22:42:41.181Z,11.47
2019-05-22T22:45:13.384Z,12.13
2019-05-22T22:47:43.953Z,13.87
2019-05-22T22:50:13.782Z,13.20
2019-05-22T22:52:42.789Z,12.77
2019-05-22T22:55:14.143Z,12.27
2019-05-22T22:57:43.356Z,13.07
2019-05-22T23:00:15.562Z,13.07
2019-05-22T23:02:46.418Z,12.07
2019-05-22T23:05:15.905Z,12.23
2019-05-22T23:07:45.281Z,13.07
2019-05-22T23:10:15.466Z,11.63
2019-05-22T23:12:44.404Z,12.83
2019-05-22T23:15:18.114Z,13.20
2019-05-22T23:17:46.327Z,15.57
2019-05-22T23:20:16.432Z,13.17
2019-05-22T23:22:44.944Z,11.70
2019-05-22T23:25:15.525Z,12.23
2019-05-22T23:27:45.145Z,11.53
2019-05-22T23:30:14.103Z,11.13
2019-05-22T23:32:43.875Z,12.87
2019-05-22T23:35:13.722Z,11.60
2019-05-22T23:37:43.076Z,12.10
2019-05-22T23:40:14.057Z,10.60
2019-05-22T23:42:43.500Z,11.37
2019-05-22T23:45:14.762Z,10.93
2019-05-22T23:47:45.228Z,12.60
2019-05-22T23:50:15.348Z,11.43
2019-05-22T23:52:44.284Z,13.10
2019-05-22T23:55:14.404Z,12.37
2019-05-22T23:57:43.515Z,14.07
